Garvin, Oklahoma
Current Conditions -  °F | °C
As of 3:55 AM on Friday 31 Oct 2014 (Local Time) from K4O4 Reporting Station
Clear Clear  
Wind Chill: 50°   Ceiling: Unl
Heat Index: 50°   Visibility: 10mi
Dew Point: 43°   Wind: 7mph
Humidity: 76%   Direction: 330°NNW
Pressure: 30.14"   Gusts: NA
Location:  33.95°N, 94.94°W
Report Text: K4O4 310855Z AUTO 33006KT 10SM CLR 10/06 A3014 RMK AO2
Loading
Personal Weather Stations






























Interactive Weather Map
Tropical Storm Tracking
New forecast layout! Learn more

10-Day Weather Forecast

Advertisements
Track Severe Weather on mobile